Time;durP1;ratioP1;P1;durP2;ratioP2;P2;SDS_P1;SDS_P2;PMS_P1;PMS_P2;Temp;Humidity;BMP_temperature;BMP_pressure;BME280_temperature;BME280_humidity;BME280_pressure;Samples;Min_cycle;Max_cycle;Signal;HPM_P1;HPM_P2
2024/01/24 00:01:56;;;;;;;9.02;2.90;;;;;;;;;;5014939;28;20025;-19
2024/01/24 00:04:22;;;;;;;7.90;3.45;;;;;;;;;;5014595;28;20046;-20
2024/01/24 00:06:48;;;;;;;10.20;4.88;;;;;;;;;;5014622;28;20022;-17
2024/01/24 00:09:15;;;;;;;6.25;2.58;;;;;;;;;;5014945;28;20399;-17
2024/01/24 00:11:41;;;;;;;4.47;2.33;;;;;;;;;;5014673;28;20408;-19
2024/01/24 00:14:07;;;;;;;7.82;2.50;;;;;;;;;;5014424;28;20029;-20
2024/01/24 00:16:33;;;;;;;4.85;2.55;;;;;;;;;;5014893;28;20045;-19
2024/01/24 00:18:59;;;;;;;6.50;2.53;;;;;;;;;;5015095;28;20022;-18
2024/01/24 00:21:25;;;;;;;5.65;2.50;;;;;;;;;;5014586;28;20072;-18
2024/01/24 00:23:51;;;;;;;4.18;2.40;;;;;;;;;;5014449;28;20040;-19
2024/01/24 00:26:18;;;;;;;4.78;2.15;;;;;;;;;;5014576;28;20087;-20
2024/01/24 00:28:44;;;;;;;4.93;2.38;;;;;;;;;;5014463;28;20060;-17
2024/01/24 00:31:10;;;;;;;4.93;2.00;;;;;;;;;;5014460;28;20038;-20
2024/01/24 00:33:36;;;;;;;3.38;1.90;;;;;;;;;;5014545;28;20029;-20
2024/01/24 00:36:02;;;;;;;4.85;2.20;;;;;;;;;;5015241;28;20022;-18
2024/01/24 00:38:28;;;;;;;4.32;2.40;;;;;;;;;;5018200;28;20101;-20
2024/01/24 00:40:54;;;;;;;5.72;2.25;;;;;;;;;;5017201;28;20030;-20
2024/01/24 00:43:21;;;;;;;4.43;2.08;;;;;;;;;;5018323;28;20030;-19
2024/01/24 00:45:47;;;;;;;4.53;2.83;;;;;;;;;;5018051;28;20052;-19
2024/01/24 00:48:13;;;;;;;4.60;1.77;;;;;;;;;;5018013;28;20029;-18
2024/01/24 00:50:40;;;;;;;4.07;2.00;;;;;;;;;;5018235;28;20353;-20
2024/01/24 00:53:06;;;;;;;4.00;2.08;;;;;;;;;;5018096;28;20048;-20
2024/01/24 00:55:32;;;;;;;3.85;1.90;;;;;;;;;;5017914;28;20495;-19
2024/01/24 00:57:59;;;;;;;3.53;2.05;;;;;;;;;;5018131;28;20026;-21
2024/01/24 01:00:25;;;;;;;5.57;1.75;;;;;;;;;;5018086;28;20018;-20
2024/01/24 01:02:51;;;;;;;5.22;1.90;;;;;;;;;;5017686;28;20447;-22
2024/01/24 01:05:17;;;;;;;7.60;2.13;;;;;;;;;;5018242;28;20026;-17
2024/01/24 01:07:43;;;;;;;6.90;2.28;;;;;;;;;;5017665;28;20167;-18
2024/01/24 01:10:10;;;;;;;3.55;1.90;;;;;;;;;;5018155;28;20033;-20
2024/01/24 01:12:36;;;;;;;6.78;1.90;;;;;;;;;;5017712;28;20034;-20
2024/01/24 01:15:03;;;;;;;5.93;1.90;;;;;;;;;;5017596;28;20025;-17
2024/01/24 01:17:29;;;;;;;4.07;1.80;;;;;;;;;;5017415;28;20101;-19
2024/01/24 01:19:55;;;;;;;5.20;2.10;;;;;;;;;;5017441;28;20022;-19
2024/01/24 01:22:22;;;;;;;3.92;1.95;;;;;;;;;;5017546;28;20416;-20
2024/01/24 01:24:48;;;;;;;3.33;2.17;;;;;;;;;;5017410;28;20404;-20
2024/01/24 01:27:14;;;;;;;4.38;1.90;;;;;;;;;;5017409;28;20034;-21
2024/01/24 01:29:40;;;;;;;3.95;1.70;;;;;;;;;;5017270;28;20025;-21
2024/01/24 01:32:06;;;;;;;5.93;1.77;;;;;;;;;;5017376;28;20037;-18
2024/01/24 01:34:33;;;;;;;5.88;1.60;;;;;;;;;;5017381;28;20084;-19
2024/01/24 01:36:59;;;;;;;6.78;1.90;;;;;;;;;;5017144;28;20029;-19
2024/01/24 01:39:25;;;;;;;5.07;2.00;;;;;;;;;;5017600;28;20029;-19
2024/01/24 01:41:51;;;;;;;5.68;2.13;;;;;;;;;;5017177;28;20359;-19
2024/01/24 01:44:17;;;;;;;5.72;2.20;;;;;;;;;;5016989;28;20041;-19
2024/01/24 01:46:47;;;;;;;2.33;1.77;;;;;;;;;;5016895;28;20025;-19
2024/01/24 01:49:13;;;;;;;3.42;1.95;;;;;;;;;;5016908;28;20021;-22
2024/01/24 01:51:40;;;;;;;3.20;1.60;;;;;;;;;;5017114;28;20480;-21
2024/01/24 01:54:08;;;;;;;2.40;1.63;;;;;;;;;;5016635;28;20025;-22
2024/01/24 01:56:35;;;;;;;5.18;2.78;;;;;;;;;;5016737;28;20029;-19
2024/01/24 01:59:01;;;;;;;3.80;1.77;;;;;;;;;;5016700;28;20026;-21
2024/01/24 02:01:27;;;;;;;3.15;1.70;;;;;;;;;;5016692;28;20022;-20
2024/01/24 02:03:53;;;;;;;2.10;1.55;;;;;;;;;;5016353;28;20050;-19
2024/01/24 02:06:19;;;;;;;5.75;1.67;;;;;;;;;;5016561;28;20112;-17
2024/01/24 02:08:46;;;;;;;10.20;1.80;;;;;;;;;;5016816;28;20017;-18
2024/01/24 02:11:12;;;;;;;2.80;1.50;;;;;;;;;;5016727;28;20464;-20
2024/01/24 02:13:38;;;;;;;3.58;1.35;;;;;;;;;;5016573;28;20121;-17
2024/01/24 02:16:05;;;;;;;4.43;2.05;;;;;;;;;;5016907;28;20022;-20
2024/01/24 02:18:31;;;;;;;4.40;2.20;;;;;;;;;;5016378;28;20041;-20
2024/01/24 02:20:58;;;;;;;3.25;1.70;;;;;;;;;;5016567;28;20057;-18
2024/01/24 02:23:25;;;;;;;3.40;1.90;;;;;;;;;;5016186;28;20060;-18
2024/01/24 02:25:52;;;;;;;3.00;1.75;;;;;;;;;;5016144;28;20067;-20
2024/01/24 02:28:18;;;;;;;3.35;1.92;;;;;;;;;;5016116;28;20049;-22
2024/01/24 02:30:44;;;;;;;5.07;2.15;;;;;;;;;;5016120;28;20026;-20
2024/01/24 02:33:11;;;;;;;3.40;1.45;;;;;;;;;;5015750;28;20339;-21
2024/01/24 02:35:37;;;;;;;2.67;1.75;;;;;;;;;;5016318;28;20033;-24
2024/01/24 02:38:03;;;;;;;2.90;1.42;;;;;;;;;;5016001;28;20026;-19
2024/01/24 02:40:29;;;;;;;2.63;1.80;;;;;;;;;;5015968;28;20073;-18
2024/01/24 02:42:56;;;;;;;3.08;1.10;;;;;;;;;;5015833;28;20026;-18
2024/01/24 02:45:22;;;;;;;3.20;1.73;;;;;;;;;;5015845;28;20034;-18
2024/01/24 02:47:48;;;;;;;4.95;1.92;;;;;;;;;;5015845;28;20037;-20
2024/01/24 02:50:14;;;;;;;2.15;1.48;;;;;;;;;;5016090;28;20547;-24
2024/01/24 02:52:40;;;;;;;2.63;1.40;;;;;;;;;;5015866;28;20041;-21
2024/01/24 02:55:07;;;;;;;4.65;2.20;;;;;;;;;;5015712;28;20029;-21
2024/01/24 02:57:33;;;;;;;3.67;1.60;;;;;;;;;;5015587;28;20032;-19
2024/01/24 03:00:00;;;;;;;3.10;1.42;;;;;;;;;;5015195;28;20056;-20
2024/01/24 03:02:26;;;;;;;4.13;1.25;;;;;;;;;;5015656;28;20029;-20
2024/01/24 03:04:52;;;;;;;2.10;1.55;;;;;;;;;;5015803;28;20101;-20
2024/01/24 03:07:18;;;;;;;2.95;1.17;;;;;;;;;;5015714;28;20030;-22
2024/01/24 03:09:45;;;;;;;1.20;0.80;;;;;;;;;;5015475;28;20029;-23
2024/01/24 03:12:12;;;;;;;4.95;1.20;;;;;;;;;;5015318;28;20056;-21
2024/01/24 03:14:38;;;;;;;2.10;1.15;;;;;;;;;;5015824;28;20101;-20
2024/01/24 03:17:05;;;;;;;3.53;1.52;;;;;;;;;;5015603;28;20018;-17
2024/01/24 03:19:31;;;;;;;2.45;1.35;;;;;;;;;;5015579;28;20064;-19
2024/01/24 03:21:57;;;;;;;2.67;1.23;;;;;;;;;;5015207;28;20033;-21
2024/01/24 03:24:23;;;;;;;2.13;1.73;;;;;;;;;;5015237;28;20121;-21
2024/01/24 03:26:49;;;;;;;3.40;1.48;;;;;;;;;;5015203;28;20029;-21
2024/01/24 03:29:15;;;;;;;2.33;1.40;;;;;;;;;;5015129;28;20368;-19
2024/01/24 03:31:44;;;;;;;2.97;1.23;;;;;;;;;;5015379;28;20049;-21
2024/01/24 03:34:13;;;;;;;2.33;1.30;;;;;;;;;;5014985;28;20044;-20
2024/01/24 03:36:40;;;;;;;2.67;1.40;;;;;;;;;;5015063;28;20049;-20
2024/01/24 03:39:09;;;;;;;2.85;1.60;;;;;;;;;;5015015;28;20026;-20
2024/01/24 03:41:37;;;;;;;1.65;1.33;;;;;;;;;;5014971;28;20022;-18
2024/01/24 03:44:03;;;;;;;1.60;1.10;;;;;;;;;;5014834;28;20050;-19
2024/01/24 03:46:30;;;;;;;2.35;1.27;;;;;;;;;;5015221;28;20080;-18
2024/01/24 03:48:56;;;;;;;4.00;1.45;;;;;;;;;;5015452;28;20049;-17
2024/01/24 03:51:22;;;;;;;3.45;1.23;;;;;;;;;;5014859;28;20032;-20
2024/01/24 03:53:49;;;;;;;2.65;0.95;;;;;;;;;;5014781;28;20041;-20
2024/01/24 03:56:15;;;;;;;4.57;1.45;;;;;;;;;;5015102;28;20049;-21
2024/01/24 03:58:41;;;;;;;1.55;1.10;;;;;;;;;;5014737;28;20026;-23
2024/01/24 04:01:08;;;;;;;5.88;1.55;;;;;;;;;;5015030;28;20030;-22
2024/01/24 04:03:34;;;;;;;2.03;1.55;;;;;;;;;;5013096;28;20104;-17
2024/01/24 04:06:00;;;;;;;2.38;1.63;;;;;;;;;;5013826;28;20026;-17
2024/01/24 04:08:26;;;;;;;2.08;1.58;;;;;;;;;;5013852;28;20450;-21
2024/01/24 04:10:52;;;;;;;1.70;1.08;;;;;;;;;;5014379;28;20037;-21
2024/01/24 04:13:18;;;;;;;2.50;1.30;;;;;;;;;;5017437;28;20026;-20
2024/01/24 04:15:45;;;;;;;2.47;1.20;;;;;;;;;;5017290;28;20037;-19
2024/01/24 04:18:11;;;;;;;2.25;1.60;;;;;;;;;;5017165;28;20093;-20
2024/01/24 04:20:37;;;;;;;5.50;1.60;;;;;;;;;;5017490;28;20026;-18
2024/01/24 04:23:03;;;;;;;3.05;1.52;;;;;;;;;;5017130;28;20152;-21
2024/01/24 04:25:30;;;;;;;8.13;1.75;;;;;;;;;;5017095;28;20104;-21
2024/01/24 04:27:57;;;;;;;4.32;2.83;;;;;;;;;;5017092;28;20026;-21
2024/01/24 04:30:23;;;;;;;2.88;1.50;;;;;;;;;;5017036;28;20026;-18
2024/01/24 04:32:49;;;;;;;5.40;1.50;;;;;;;;;;5016892;28;20017;-21
2024/01/24 04:35:15;;;;;;;2.22;1.40;;;;;;;;;;5016974;28;20064;-22
2024/01/24 04:37:41;;;;;;;6.45;1.83;;;;;;;;;;5017431;28;20483;-19
2024/01/24 04:40:08;;;;;;;2.58;1.20;;;;;;;;;;5016946;28;20038;-21
2024/01/24 04:42:34;;;;;;;4.32;1.65;;;;;;;;;;5016801;28;20061;-23
2024/01/24 04:45:00;;;;;;;3.47;1.98;;;;;;;;;;5017133;28;20041;-23
2024/01/24 04:47:26;;;;;;;4.55;1.85;;;;;;;;;;5016820;28;20084;-20
2024/01/24 04:49:52;;;;;;;5.43;1.67;;;;;;;;;;5017015;28;20357;-20
2024/01/24 04:52:19;;;;;;;1.38;1.20;;;;;;;;;;5017163;28;20026;-22
2024/01/24 04:54:45;;;;;;;2.97;2.30;;;;;;;;;;5016598;28;20030;-21
2024/01/24 04:57:11;;;;;;;3.88;2.00;;;;;;;;;;5016619;28;20360;-22
2024/01/24 04:59:37;;;;;;;1.95;1.52;;;;;;;;;;5016808;28;20022;-22
2024/01/24 05:02:05;;;;;;;2.55;1.60;;;;;;;;;;5016983;28;20034;-21
2024/01/24 05:04:32;;;;;;;1.75;1.10;;;;;;;;;;4967194;28;1455515;-20
2024/01/24 05:06:58;;;;;;;1.98;1.10;;;;;;;;;;5016605;28;20457;-19
2024/01/24 05:09:24;;;;;;;3.55;1.70;;;;;;;;;;5017796;28;20033;-20
2024/01/24 05:11:50;;;;;;;2.70;1.60;;;;;;;;;;5017684;28;20113;-22
2024/01/24 05:14:16;;;;;;;5.65;2.50;;;;;;;;;;5017346;28;20104;-21
2024/01/24 05:16:43;;;;;;;2.63;1.60;;;;;;;;;;5017584;28;20329;-21
2024/01/24 05:19:09;;;;;;;4.05;1.15;;;;;;;;;;5017596;28;20022;-20
2024/01/24 05:21:42;;;;;;;2.38;1.50;;;;;;;;;;5017742;28;20022;-23
2024/01/24 05:24:09;;;;;;;4.30;1.20;;;;;;;;;;5017361;28;20030;-22
2024/01/24 05:26:36;;;;;;;4.68;2.00;;;;;;;;;;5017571;28;20061;-19
2024/01/24 05:29:03;;;;;;;3.72;1.52;;;;;;;;;;5017238;28;20041;-17
2024/01/24 05:31:29;;;;;;;2.75;1.52;;;;;;;;;;5017109;28;20040;-21
2024/01/24 05:33:55;;;;;;;4.43;1.95;;;;;;;;;;5017197;28;20037;-19
2024/01/24 05:36:22;;;;;;;3.00;1.50;;;;;;;;;;5016065;28;20359;-19
2024/01/24 05:38:48;;;;;;;2.22;1.33;;;;;;;;;;5017636;28;20441;-21
2024/01/24 05:41:14;;;;;;;3.38;1.40;;;;;;;;;;5017209;28;20455;-18
2024/01/24 05:43:40;;;;;;;3.30;1.77;;;;;;;;;;5017096;28;20030;-20
2024/01/24 05:46:07;;;;;;;5.55;1.45;;;;;;;;;;5017180;28;20026;-21
2024/01/24 05:48:33;;;;;;;3.30;2.13;;;;;;;;;;5015920;28;20030;-23
2024/01/24 05:50:59;;;;;;;4.28;1.92;;;;;;;;;;5015821;28;20369;-19
2024/01/24 05:53:25;;;;;;;3.85;1.75;;;;;;;;;;5016852;28;20060;-21
2024/01/24 05:55:51;;;;;;;6.63;1.98;;;;;;;;;;5016882;28;20032;-18
2024/01/24 05:58:18;;;;;;;4.47;1.85;;;;;;;;;;5016631;28;20049;-20
2024/01/24 06:00:44;;;;;;;4.45;1.70;;;;;;;;;;5017057;28;20029;-22
2024/01/24 06:03:11;;;;;;;3.33;1.75;;;;;;;;;;5016253;28;20050;-20
2024/01/24 06:05:37;;;;;;;7.57;1.83;;;;;;;;;;5016826;28;20349;-22
2024/01/24 06:08:05;;;;;;;3.05;2.03;;;;;;;;;;5016691;28;20034;-23
2024/01/24 06:10:31;;;;;;;5.78;2.20;;;;;;;;;;5016348;28;20441;-21
2024/01/24 06:12:58;;;;;;;9.05;1.80;;;;;;;;;;5016250;28;20412;-21
2024/01/24 06:15:24;;;;;;;4.63;1.80;;;;;;;;;;5016354;28;20096;-18
2024/01/24 06:17:50;;;;;;;5.22;1.70;;;;;;;;;;5016329;28;20029;-24
2024/01/24 06:20:16;;;;;;;3.67;1.52;;;;;;;;;;5015330;28;20030;-24
2024/01/24 06:22:42;;;;;;;8.27;1.63;;;;;;;;;;5016098;28;20022;-21
2024/01/24 06:25:09;;;;;;;2.47;1.42;;;;;;;;;;5016541;28;20378;-20
2024/01/24 06:27:36;;;;;;;5.57;2.00;;;;;;;;;;5016138;28;20022;-21
2024/01/24 06:30:02;;;;;;;4.90;1.98;;;;;;;;;;5016380;28;20084;-20
2024/01/24 06:32:28;;;;;;;5.82;1.80;;;;;;;;;;5016419;28;20064;-18
2024/01/24 06:34:54;;;;;;;3.95;1.73;;;;;;;;;;5015194;28;20022;-18
2024/01/24 06:37:21;;;;;;;6.25;2.13;;;;;;;;;;5016495;28;20025;-19
2024/01/24 06:39:47;;;;;;;4.25;2.15;;;;;;;;;;5015903;28;20079;-20
2024/01/24 06:42:13;;;;;;;7.10;2.92;;;;;;;;;;5016053;28;20021;-22
2024/01/24 06:44:39;;;;;;;3.08;1.75;;;;;;;;;;5016133;28;20114;-23
2024/01/24 06:47:05;;;;;;;3.80;1.83;;;;;;;;;;5015855;28;20416;-19
2024/01/24 06:49:32;;;;;;;2.47;1.73;;;;;;;;;;5016229;28;20481;-17
2024/01/24 06:51:58;;;;;;;8.98;3.55;;;;;;;;;;5015638;28;20038;-18
2024/01/24 06:54:24;;;;;;;3.78;1.98;;;;;;;;;;5015581;28;20037;-19
2024/01/24 06:56:50;;;;;;;4.32;1.58;;;;;;;;;;5015583;28;20034;-20
2024/01/24 06:59:16;;;;;;;5.15;2.00;;;;;;;;;;5015562;28;20079;-21
2024/01/24 07:01:43;;;;;;;3.63;1.52;;;;;;;;;;5015978;28;20026;-22
2024/01/24 07:04:09;;;;;;;4.30;2.05;;;;;;;;;;5015248;28;20049;-20
2024/01/24 07:06:36;;;;;;;5.05;2.80;;;;;;;;;;5015512;28;20022;-18
2024/01/24 07:09:02;;;;;;;6.85;2.85;;;;;;;;;;5015584;28;20104;-22
2024/01/24 07:11:28;;;;;;;8.02;2.20;;;;;;;;;;5015292;28;20449;-19
2024/01/24 07:13:55;;;;;;;6.32;2.08;;;;;;;;;;5015219;28;20453;-22
2024/01/24 07:16:21;;;;;;;4.00;2.08;;;;;;;;;;5015336;28;20030;-23
2024/01/24 07:18:47;;;;;;;2.78;1.77;;;;;;;;;;5015552;28;20373;-21
2024/01/24 07:21:14;;;;;;;4.20;2.00;;;;;;;;;;5015441;28;20017;-22
2024/01/24 07:23:40;;;;;;;6.57;2.28;;;;;;;;;;5015175;28;20083;-19
2024/01/24 07:26:07;;;;;;;4.55;2.00;;;;;;;;;;5015472;28;20323;-21
2024/01/24 07:28:34;;;;;;;8.15;2.20;;;;;;;;;;5015417;28;20032;-18
2024/01/24 07:31:01;;;;;;;6.03;2.40;;;;;;;;;;5014124;28;20080;-18
2024/01/24 07:33:27;;;;;;;5.65;2.53;;;;;;;;;;5015013;28;20453;-17
2024/01/24 07:35:53;;;;;;;5.45;2.63;;;;;;;;;;5015283;28;20040;-18
2024/01/24 07:38:20;;;;;;;6.53;2.17;;;;;;;;;;5015006;28;20025;-21
2024/01/24 07:40:46;;;;;;;4.95;2.38;;;;;;;;;;5015180;28;20018;-22
2024/01/24 07:43:12;;;;;;;4.57;2.03;;;;;;;;;;5014854;28;20026;-22
2024/01/24 07:45:38;;;;;;;6.53;1.83;;;;;;;;;;5015008;28;20029;-21
2024/01/24 07:48:05;;;;;;;10.63;2.55;;;;;;;;;;5015234;28;20032;-21
2024/01/24 07:50:31;;;;;;;14.40;4.10;;;;;;;;;;5014948;28;20030;-22
2024/01/24 07:52:57;;;;;;;4.82;2.53;;;;;;;;;;5014801;28;20057;-23
2024/01/24 07:55:23;;;;;;;5.18;2.03;;;;;;;;;;5014542;28;20064;-20
2024/01/24 07:57:49;;;;;;;4.53;2.45;;;;;;;;;;5015139;28;20033;-20
2024/01/24 08:00:16;;;;;;;3.00;1.98;;;;;;;;;;5014613;28;20026;-21
2024/01/24 08:02:44;;;;;;;6.18;2.85;;;;;;;;;;5014309;28;20042;-20
2024/01/24 08:05:12;;;;;;;5.78;2.78;;;;;;;;;;5014533;28;20021;-23
2024/01/24 08:07:40;;;;;;;7.05;3.03;;;;;;;;;;5014558;28;20040;-20
2024/01/24 08:10:10;;;;;;;9.15;3.97;;;;;;;;;;5014883;28;20330;-21
2024/01/24 08:12:38;;;;;;;10.30;2.53;;;;;;;;;;5014961;28;20418;-19
2024/01/24 08:15:05;;;;;;;4.78;2.65;;;;;;;;;;5014393;28;20057;-19
2024/01/24 08:17:32;;;;;;;6.03;2.25;;;;;;;;;;5014465;28;20022;-20
2024/01/24 08:19:58;;;;;;;15.52;2.83;;;;;;;;;;5014834;28;20369;-21
2024/01/24 08:22:28;;;;;;;10.20;3.63;;;;;;;;;;5014795;28;20022;-19
2024/01/24 08:24:54;;;;;;;8.15;3.88;;;;;;;;;;5014575;28;20113;-22
2024/01/24 08:27:20;;;;;;;9.30;3.85;;;;;;;;;;5014756;28;20026;-22
2024/01/24 08:29:47;;;;;;;12.68;4.32;;;;;;;;;;5014706;28;20108;-22
2024/01/24 08:32:13;;;;;;;13.95;3.67;;;;;;;;;;5014545;28;20054;-18
2024/01/24 08:34:39;;;;;;;8.70;3.28;;;;;;;;;;5014358;28;20057;-18
2024/01/24 08:37:05;;;;;;;15.88;4.30;;;;;;;;;;5014404;28;20018;-19
2024/01/24 08:39:35;;;;;;;10.38;3.05;;;;;;;;;;5014525;28;20390;-19
2024/01/24 08:42:01;;;;;;;7.07;3.38;;;;;;;;;;5014241;28;20450;-21
2024/01/24 08:44:28;;;;;;;14.77;4.38;;;;;;;;;;5014736;28;20026;-18
2024/01/24 08:46:54;;;;;;;15.27;4.15;;;;;;;;;;5014295;28;20058;-18
2024/01/24 08:49:20;;;;;;;11.73;3.90;;;;;;;;;;5014769;28;20059;-19
2024/01/24 08:51:46;;;;;;;8.55;3.97;;;;;;;;;;5013203;28;20036;-21
2024/01/24 08:54:12;;;;;;;8.45;3.38;;;;;;;;;;5013128;28;20032;-19
2024/01/24 08:56:39;;;;;;;6.28;3.22;;;;;;;;;;5014554;28;20100;-21
2024/01/24 08:59:06;;;;;;;12.52;3.22;;;;;;;;;;5018079;28;20125;-18
2024/01/24 09:01:32;;;;;;;5.90;3.15;;;;;;;;;;5017770;28;20022;-26
2024/01/24 09:03:58;;;;;;;17.67;5.45;;;;;;;;;;5017449;28;20351;-23
2024/01/24 09:06:25;;;;;;;12.63;3.90;;;;;;;;;;5017311;28;20099;-19
2024/01/24 09:08:54;;;;;;;8.60;3.10;;;;;;;;;;5017800;28;20050;-19
2024/01/24 09:11:21;;;;;;;11.40;2.90;;;;;;;;;;5017496;28;20034;-22
2024/01/24 09:13:47;;;;;;;10.63;4.53;;;;;;;;;;5017305;28;20030;-21
2024/01/24 09:16:16;;;;;;;12.00;3.75;;;;;;;;;;5017542;28;20026;-21
2024/01/24 09:18:43;;;;;;;8.63;2.40;;;;;;;;;;5017426;28;20018;-21
2024/01/24 09:21:09;;;;;;;5.60;2.60;;;;;;;;;;5017362;28;20362;-25
2024/01/24 09:23:35;;;;;;;6.95;3.40;;;;;;;;;;5017378;28;20022;-21
2024/01/24 09:26:03;;;;;;;8.43;2.88;;;;;;;;;;5017274;28;20026;-21
2024/01/24 09:28:29;;;;;;;9.15;3.17;;;;;;;;;;5017221;28;20018;-19
2024/01/24 09:30:56;;;;;;;14.25;4.50;;;;;;;;;;5017158;28;20160;-21
2024/01/24 09:33:23;;;;;;;14.63;5.43;;;;;;;;;;5017197;28;20349;-21
2024/01/24 09:35:49;;;;;;;8.95;3.30;;;;;;;;;;5016978;28;20050;-21
2024/01/24 09:38:16;;;;;;;6.18;2.75;;;;;;;;;;5017052;28;20022;-19
2024/01/24 09:40:42;;;;;;;14.35;4.85;;;;;;;;;;5016994;28;20026;-20
2024/01/24 09:43:10;;;;;;;6.72;3.35;;;;;;;;;;5017228;28;20334;-19
2024/01/24 09:45:43;;;;;;;10.98;4.30;;;;;;;;;;5016962;28;20109;-17
2024/01/24 09:48:10;;;;;;;9.60;3.40;;;;;;;;;;5016942;28;20076;-19
2024/01/24 09:50:37;;;;;;;13.93;5.78;;;;;;;;;;5016867;28;20096;-22
2024/01/24 09:53:05;;;;;;;10.85;4.18;;;;;;;;;;5016782;28;20057;-26
2024/01/24 09:55:32;;;;;;;15.18;4.68;;;;;;;;;;5016841;28;20014;-22
2024/01/24 09:57:58;;;;;;;9.85;4.15;;;;;;;;;;5017001;28;20077;-19
2024/01/24 10:00:24;;;;;;;9.35;3.35;;;;;;;;;;5016375;28;20033;-18
2024/01/24 10:02:51;;;;;;;5.60;2.75;;;;;;;;;;5016423;28;20428;-18
2024/01/24 10:05:18;;;;;;;5.97;2.78;;;;;;;;;;5017217;28;20033;-20
2024/01/24 10:07:44;;;;;;;10.07;3.03;;;;;;;;;;5016810;28;20036;-22
2024/01/24 10:10:12;;;;;;;5.90;3.05;;;;;;;;;;5015931;28;20504;-21
2024/01/24 10:12:41;;;;;;;9.23;4.30;;;;;;;;;;5016863;28;20025;-19
2024/01/24 10:15:08;;;;;;;7.85;3.75;;;;;;;;;;5016161;28;20040;-19
2024/01/24 10:17:34;;;;;;;8.35;3.05;;;;;;;;;;5016371;28;20018;-21
2024/01/24 10:20:00;;;;;;;7.40;2.90;;;;;;;;;;5016341;28;20029;-19
2024/01/24 10:22:27;;;;;;;9.00;2.58;;;;;;;;;;5015077;28;20049;-22
2024/01/24 10:24:57;;;;;;;11.55;4.07;;;;;;;;;;5016120;28;20042;-22
2024/01/24 10:27:23;;;;;;;10.23;4.05;;;;;;;;;;5016406;28;20040;-19
2024/01/24 10:29:49;;;;;;;11.15;3.58;;;;;;;;;;5016295;28;20101;-21
2024/01/24 10:32:15;;;;;;;10.38;4.07;;;;;;;;;;5016076;28;20033;-19
2024/01/24 10:34:42;;;;;;;10.85;3.42;;;;;;;;;;5014874;28;20037;-21
2024/01/24 10:37:08;;;;;;;8.18;3.40;;;;;;;;;;5015051;28;20022;-20
2024/01/24 10:39:39;;;;;;;10.23;3.95;;;;;;;;;;5016142;28;20401;-21
2024/01/24 10:42:09;;;;;;;10.90;4.37;;;;;;;;;;5015998;28;20033;-19
2024/01/24 10:44:35;;;;;;;7.93;2.75;;;;;;;;;;5016270;28;20026;-19
2024/01/24 10:47:05;;;;;;;5.95;3.30;;;;;;;;;;5015583;28;20030;-22
2024/01/24 10:49:32;;;;;;;10.98;3.50;;;;;;;;;;5016076;28;20042;-20
2024/01/24 10:51:58;;;;;;;12.27;4.30;;;;;;;;;;5015544;28;20141;-21
2024/01/24 10:54:25;;;;;;;15.35;4.97;;;;;;;;;;5015681;28;20310;-21
2024/01/24 10:56:51;;;;;;;7.18;3.72;;;;;;;;;;5016972;28;20392;-19
2024/01/24 10:59:18;;;;;;;12.13;4.00;;;;;;;;;;5015584;28;20022;-20
2024/01/24 11:01:45;;;;;;;13.05;4.53;;;;;;;;;;5015973;28;20022;-19
2024/01/24 11:04:13;;;;;;;10.65;4.47;;;;;;;;;;5015174;28;20184;-21
2024/01/24 11:06:45;;;;;;;13.32;4.40;;;;;;;;;;5015196;28;20064;-20
2024/01/24 11:09:23;;;;;;;21.58;6.20;;;;;;;;;;4998080;28;20036;-18
2024/01/24 11:11:52;;;;;;;15.48;5.53;;;;;;;;;;5015278;28;20044;-22
2024/01/24 11:14:38;;;;;;;16.30;5.43;;;;;;;;;;5015460;28;20017;-21
2024/01/24 11:17:05;;;;;;;12.60;4.38;;;;;;;;;;5015442;28;20033;-21
2024/01/24 11:19:32;;;;;;;12.52;4.55;;;;;;;;;;5015576;28;20096;-22
2024/01/24 11:22:04;;;;;;;13.68;4.10;;;;;;;;;;5015200;28;20018;-18
2024/01/24 11:24:46;;;;;;;9.52;4.00;;;;;;;;;;5014185;28;20338;-20
2024/01/24 11:27:24;;;;;;;15.98;4.65;;;;;;;;;;5015484;28;20440;-20
2024/01/24 11:29:51;;;;;;;13.25;4.45;;;;;;;;;;5014993;28;20053;-23
2024/01/24 11:32:37;;;;;;;9.57;3.97;;;;;;;;;;5014870;28;20036;-23
2024/01/24 11:35:21;;;;;;;13.80;3.58;;;;;;;;;;5014932;28;20109;-24
2024/01/24 11:37:48;;;;;;;14.55;4.88;;;;;;;;;;5015012;28;20037;-20
2024/01/24 11:40:16;;;;;;;20.48;5.50;;;;;;;;;;5015128;28;20028;-22
2024/01/24 11:42:42;;;;;;;14.50;5.38;;;;;;;;;;5014867;28;20393;-17
2024/01/24 11:45:16;;;;;;;17.48;5.55;;;;;;;;;;5014902;28;20022;-20
2024/01/24 11:47:43;;;;;;;10.05;4.95;;;;;;;;;;5015177;28;20352;-22
2024/01/24 11:50:11;;;;;;;17.20;4.47;;;;;;;;;;5015102;28;20064;-21
2024/01/24 11:52:38;;;;;;;21.00;7.25;;;;;;;;;;5015012;28;20477;-20
2024/01/24 11:55:04;;;;;;;15.27;6.03;;;;;;;;;;5014973;28;20369;-22
2024/01/24 11:57:30;;;;;;;11.18;4.47;;;;;;;;;;5015046;28;20380;-22
2024/01/24 11:59:57;;;;;;;13.20;4.07;;;;;;;;;;5014684;28;20022;-19
2024/01/24 12:02:23;;;;;;;12.48;4.60;;;;;;;;;;5015059;28;20037;-18
2024/01/24 12:04:52;;;;;;;12.50;4.82;;;;;;;;;;5014678;28;20084;-20
2024/01/24 12:07:19;;;;;;;7.93;3.83;;;;;;;;;;5013658;28;20113;-23
2024/01/24 12:09:45;;;;;;;9.57;4.13;;;;;;;;;;5014670;28;20029;-20
2024/01/24 12:12:13;;;;;;;9.50;3.90;;;;;;;;;;5014538;28;20034;-20
2024/01/24 12:14:40;;;;;;;7.40;3.38;;;;;;;;;;5014603;28;20053;-24
2024/01/24 12:17:10;;;;;;;8.80;3.40;;;;;;;;;;5014610;28;20037;-22
2024/01/24 12:19:36;;;;;;;11.15;3.97;;;;;;;;;;5014603;28;20030;-17
2024/01/24 12:22:05;;;;;;;8.00;4.03;;;;;;;;;;5013479;28;20029;-22
2024/01/24 12:24:31;;;;;;;12.20;4.22;;;;;;;;;;5014553;28;20036;-21
2024/01/24 12:26:58;;;;;;;9.43;4.32;;;;;;;;;;5014744;28;20037;-19
2024/01/24 12:29:25;;;;;;;12.68;3.92;;;;;;;;;;5015043;28;20393;-21
2024/01/24 12:31:51;;;;;;;6.93;4.05;;;;;;;;;;5014687;28;20034;-19
2024/01/24 12:34:21;;;;;;;18.70;4.28;;;;;;;;;;5018209;28;20026;-20
2024/01/24 12:36:48;;;;;;;11.68;4.63;;;;;;;;;;5018241;28;20088;-21
2024/01/24 12:39:15;;;;;;;11.57;4.28;;;;;;;;;;5018207;28;20037;-21
2024/01/24 12:41:41;;;;;;;7.80;3.75;;;;;;;;;;5018153;28;20541;-21
2024/01/24 12:44:10;;;;;;;16.48;4.90;;;;;;;;;;5018319;28;20038;-18
2024/01/24 12:46:38;;;;;;;13.50;4.78;;;;;;;;;;5018040;28;20083;-20
2024/01/24 12:49:04;;;;;;;12.48;4.78;;;;;;;;;;5017975;28;20044;-19
2024/01/24 12:51:32;;;;;;;8.40;3.63;;;;;;;;;;5017967;28;20326;-21
2024/01/24 12:53:58;;;;;;;8.10;3.40;;;;;;;;;;5017741;28;20499;-20
2024/01/24 12:56:25;;;;;;;10.23;4.13;;;;;;;;;;5017879;28;20449;-20
2024/01/24 12:58:51;;;;;;;11.70;4.72;;;;;;;;;;5017812;28;20026;-20
2024/01/24 13:01:17;;;;;;;9.70;4.22;;;;;;;;;;5017751;28;20041;-21
2024/01/24 13:03:43;;;;;;;10.60;4.40;;;;;;;;;;5016429;28;20092;-21
2024/01/24 13:06:09;;;;;;;10.60;4.93;;;;;;;;;;5017937;28;20037;-21
2024/01/24 13:08:35;;;;;;;13.48;4.15;;;;;;;;;;5017674;28;20472;-19
2024/01/24 13:11:02;;;;;;;9.57;4.10;;;;;;;;;;5017640;28;20058;-22
2024/01/24 13:13:28;;;;;;;7.13;3.55;;;;;;;;;;5017425;28;20102;-22
2024/01/24 13:15:56;;;;;;;8.23;3.55;;;;;;;;;;5017782;28;20018;-21
2024/01/24 13:18:23;;;;;;;10.38;4.63;;;;;;;;;;5017546;28;20024;-20
2024/01/24 13:20:49;;;;;;;12.30;4.72;;;;;;;;;;5017730;28;20033;-24
2024/01/24 13:23:15;;;;;;;9.77;4.13;;;;;;;;;;5017646;28;20028;-18
2024/01/24 13:25:41;;;;;;;10.32;4.15;;;;;;;;;;5017291;28;20034;-21
2024/01/24 13:28:08;;;;;;;12.77;4.40;;;;;;;;;;5017380;28;20030;-25
2024/01/24 13:30:34;;;;;;;9.88;4.13;;;;;;;;;;5017793;28;20080;-19
2024/01/24 13:33:01;;;;;;;11.63;4.35;;;;;;;;;;5017036;28;20037;-21
2024/01/24 13:35:27;;;;;;;12.25;5.00;;;;;;;;;;5017774;28;20310;-18
2024/01/24 13:37:53;;;;;;;13.55;4.20;;;;;;;;;;5017164;28;20099;-19
2024/01/24 13:40:19;;;;;;;17.55;4.30;;;;;;;;;;5017076;28;20353;-20
2024/01/24 13:42:45;;;;;;;11.40;3.92;;;;;;;;;;5016714;28;20453;-19
2024/01/24 13:45:12;;;;;;;8.68;3.85;;;;;;;;;;5015902;28;20399;-20
2024/01/24 13:47:38;;;;;;;11.05;4.38;;;;;;;;;;5017432;28;20145;-21
2024/01/24 13:50:05;;;;;;;9.63;4.70;;;;;;;;;;5017150;28;20022;-21
2024/01/24 13:52:32;;;;;;;9.63;3.63;;;;;;;;;;5015731;28;20481;-21
2024/01/24 13:54:58;;;;;;;9.23;3.70;;;;;;;;;;5016746;28;20105;-18
2024/01/24 13:57:24;;;;;;;12.57;4.30;;;;;;;;;;5017067;28;20103;-20
2024/01/24 13:59:50;;;;;;;12.65;4.15;;;;;;;;;;5015759;28;20365;-23
2024/01/24 14:02:16;;;;;;;13.48;4.63;;;;;;;;;;5016633;28;20378;-20
2024/01/24 14:04:42;;;;;;;12.00;4.13;;;;;;;;;;5016437;28;20077;-20
2024/01/24 14:07:09;;;;;;;13.00;4.47;;;;;;;;;;5016618;28;20029;-20
2024/01/24 14:09:35;;;;;;;7.93;4.07;;;;;;;;;;5016719;28;20026;-19
2024/01/24 14:12:02;;;;;;;12.70;5.00;;;;;;;;;;5016338;28;20041;-19
2024/01/24 14:14:29;;;;;;;9.73;4.22;;;;;;;;;;5016337;28;20461;-20
2024/01/24 14:16:55;;;;;;;12.32;4.57;;;;;;;;;;5016346;28;20095;-19
2024/01/24 14:19:23;;;;;;;8.93;5.05;;;;;;;;;;5016739;28;20333;-18
2024/01/24 14:21:49;;;;;;;6.53;3.58;;;;;;;;;;5016201;28;20471;-18
2024/01/24 14:24:16;;;;;;;10.52;4.07;;;;;;;;;;5016704;28;20026;-19
2024/01/24 14:26:42;;;;;;;12.50;4.07;;;;;;;;;;5016146;28;20030;-21
2024/01/24 14:29:08;;;;;;;12.90;4.40;;;;;;;;;;5016689;28;20040;-22
2024/01/24 14:31:35;;;;;;;10.00;3.70;;;;;;;;;;5016275;28;20026;-20
2024/01/24 14:34:01;;;;;;;9.43;3.90;;;;;;;;;;5015772;28;20424;-21
2024/01/24 14:36:32;;;;;;;9.07;4.55;;;;;;;;;;5016092;28;20033;-21